createdAt,value
2018-09-18T00:00:36.910Z,94586.61
2018-09-18T00:03:06.338Z,94584.52
2018-09-18T00:05:35.651Z,94589.05
2018-09-18T00:08:04.982Z,94579.44
2018-09-18T00:10:34.201Z,94576.56
2018-09-18T00:13:03.527Z,94578.88
2018-09-18T00:15:32.837Z,94574.45
2018-09-18T00:18:02.075Z,94576.06
2018-09-18T00:20:31.417Z,94570.60
2018-09-18T00:23:00.968Z,94571.45
2018-09-18T00:25:30.268Z,94566.68
2018-09-18T00:27:59.547Z,94574.23
2018-09-18T00:30:30.822Z,94574.89
2018-09-18T00:33:01.341Z,94571.06
2018-09-18T00:35:31.048Z,94574.87
2018-09-18T00:38:00.739Z,94575.53
2018-09-18T00:40:30.164Z,94578.60
2018-09-18T00:42:59.576Z,94574.68
2018-09-18T00:45:29.066Z,94568.71
2018-09-18T00:47:58.615Z,94570.42
2018-09-18T00:50:28.334Z,94577.06
2018-09-18T00:52:57.873Z,94571.89
2018-09-18T00:55:28.422Z,94570.59
2018-09-18T00:57:57.828Z,94568.31
2018-09-18T01:00:27.121Z,94563.83
2018-09-18T01:02:56.445Z,94568.66
2018-09-18T01:05:25.839Z,94562.61
2018-09-18T01:07:56.187Z,94559.59
2018-09-18T01:10:25.799Z,94563.52
2018-09-18T01:12:55.063Z,94561.98
2018-09-18T01:15:25.748Z,94564.33
2018-09-18T01:17:56.847Z,94560.08
2018-09-18T01:20:28.650Z,94559.18
2018-09-18T01:22:59.082Z,94557.88
2018-09-18T01:25:28.446Z,94554.69
2018-09-18T01:27:57.711Z,94553.70
2018-09-18T01:30:27.152Z,94548.48
2018-09-18T01:32:56.610Z,94554.38
2018-09-18T01:35:26.087Z,94555.94
2018-09-18T01:37:55.571Z,94557.18
2018-09-18T01:40:24.850Z,94555.42
2018-09-18T01:42:54.205Z,94553.16
2018-09-18T01:45:23.685Z,94549.70
2018-09-18T01:47:53.255Z,94546.52
2018-09-18T01:50:22.609Z,94554.95
2018-09-18T01:52:52.890Z,94559.38
2018-09-18T01:55:22.057Z,94549.28
2018-09-18T01:57:51.420Z,94551.84
2018-09-18T02:00:20.689Z,94555.25
2018-09-18T02:02:50.004Z,94560.56
2018-09-18T02:05:19.007Z,94557.45
2018-09-18T02:07:48.359Z,94561.11
2018-09-18T02:10:17.642Z,94561.62
2018-09-18T02:12:46.982Z,94558.53
2018-09-18T02:15:16.846Z,94561.02
2018-09-18T02:17:46.296Z,94565.69
2018-09-18T02:20:15.719Z,94565.53
2018-09-18T02:22:45.109Z,94561.39
2018-09-18T02:25:14.444Z,94557.58
2018-09-18T02:27:43.792Z,94555.47
2018-09-18T02:30:13.122Z,94555.09
2018-09-18T02:32:43.259Z,94558.73
2018-09-18T02:35:12.685Z,94558.95
2018-09-18T02:37:42.483Z,94559.59
2018-09-18T02:40:11.760Z,94557.09
2018-09-18T02:42:41.361Z,94558.08
2018-09-18T02:45:11.172Z,94560.98
2018-09-18T02:47:40.688Z,94564.45
2018-09-18T02:50:10.494Z,94565.44
2018-09-18T02:52:39.873Z,94568.11
2018-09-18T02:55:09.202Z,94565.05
2018-09-18T02:57:38.549Z,94565.97
2018-09-18T03:00:07.920Z,94565.11
2018-09-18T03:02:37.502Z,94566.49
2018-09-18T03:05:07.567Z,94570.34
2018-09-18T03:07:37.148Z,94573.30
2018-09-18T03:10:06.828Z,94573.80
2018-09-18T03:12:36.210Z,94564.97
2018-09-18T03:15:05.483Z,94566.14
2018-09-18T03:17:34.864Z,94560.34
2018-09-18T03:20:04.080Z,94567.48
2018-09-18T03:22:44.342Z,94568.34
2018-09-18T03:25:13.809Z,94566.56
2018-09-18T03:27:42.964Z,94567.44
2018-09-18T03:30:12.606Z,94564.25
2018-09-18T03:35:48.427Z,94562.50
2018-09-18T03:38:18.087Z,94559.46
2018-09-18T03:40:47.544Z,94558.58
2018-09-18T03:43:17.167Z,94564.03
2018-09-18T03:45:46.507Z,94570.81
2018-09-18T03:48:15.796Z,94565.84
2018-09-18T03:50:44.997Z,94569.30
2018-09-18T03:53:14.371Z,94560.95
2018-09-18T03:55:45.066Z,94559.66
2018-09-18T03:58:14.493Z,94566.10
2018-09-18T04:00:43.975Z,94558.13
2018-09-18T04:03:13.350Z,94554.03
2018-09-18T04:05:42.962Z,94551.50
2018-09-18T04:08:12.472Z,94556.73
2018-09-18T04:10:41.545Z,94557.16
2018-09-18T04:13:10.979Z,94560.34
2018-09-18T04:15:41.360Z,94561.80
2018-09-18T04:18:11.953Z,94561.94
2018-09-18T04:20:41.526Z,94565.05
2018-09-18T04:23:12.133Z,94564.91
2018-09-18T04:25:41.675Z,94569.98
2018-09-18T04:28:11.286Z,94566.21
2018-09-18T04:30:41.131Z,94569.40
2018-09-18T04:33:10.715Z,94570.55
2018-09-18T04:35:40.141Z,94570.20
2018-09-18T04:38:09.712Z,94570.48
2018-09-18T04:40:39.280Z,94575.05
2018-09-18T04:43:09.138Z,94585.42
2018-09-18T04:45:38.834Z,94591.41
2018-09-18T04:48:09.172Z,94587.67
2018-09-18T04:50:38.540Z,94584.47
2018-09-18T04:53:08.492Z,94590.83
2018-09-18T04:55:38.227Z,94584.75
2018-09-18T04:58:08.324Z,94583.15
2018-09-18T05:00:37.895Z,94579.83
2018-09-18T05:03:07.366Z,94586.19
2018-09-18T05:05:36.835Z,94597.28
2018-09-18T05:08:06.349Z,94590.70
2018-09-18T05:10:36.049Z,94588.81
2018-09-18T05:13:05.466Z,94597.00
2018-09-18T05:15:34.702Z,94597.50
2018-09-18T05:18:04.365Z,94597.17
2018-09-18T05:20:33.898Z,94603.77
2018-09-18T05:23:03.586Z,94593.37
2018-09-18T05:25:33.460Z,94588.30
2018-09-18T05:28:03.307Z,94585.30
2018-09-18T05:30:32.947Z,94589.28
2018-09-18T05:33:02.455Z,94592.41
2018-09-18T05:35:31.754Z,94595.52
2018-09-18T05:38:02.626Z,94594.20
2018-09-18T05:40:33.858Z,94603.63
2018-09-18T05:43:03.460Z,94597.53
2018-09-18T05:45:35.927Z,94594.42
2018-09-18T05:48:09.259Z,94604.64
2018-09-18T05:50:39.816Z,94593.43
2018-09-18T05:53:11.023Z,94599.53
2018-09-18T05:55:42.121Z,94602.11
2018-09-18T05:58:13.090Z,94609.02
2018-09-18T06:00:43.407Z,94605.44
2018-09-18T06:03:14.038Z,94601.28
2018-09-18T06:05:44.707Z,94602.02
2018-09-18T06:08:15.409Z,94596.00
2018-09-18T06:10:45.990Z,94595.85
2018-09-18T06:13:15.967Z,94597.64
2018-09-18T06:15:45.670Z,94601.28
2018-09-18T06:18:17.972Z,94600.06
2018-09-18T06:20:47.713Z,94599.97
2018-09-18T06:23:18.861Z,94593.15
2018-09-18T06:25:50.577Z,94593.92
2018-09-18T06:28:22.610Z,94598.31
2018-09-18T06:30:53.220Z,94597.02
2018-09-18T06:33:24.722Z,94591.77
2018-09-18T06:35:55.072Z,94601.63
2018-09-18T06:38:24.680Z,94600.05
2018-09-18T06:40:54.272Z,94600.32
2018-09-18T06:43:24.144Z,94606.41
2018-09-18T06:45:53.675Z,94610.02
2018-09-18T06:48:23.648Z,94589.82
2018-09-18T06:50:53.594Z,94607.55
2018-09-18T06:53:22.980Z,94606.95
2018-09-18T06:55:52.519Z,94610.41
2018-09-18T06:58:22.061Z,94608.81
2018-09-18T07:00:51.483Z,94605.10
2018-09-18T07:03:20.810Z,94606.83
2018-09-18T07:05:51.142Z,94595.94
2018-09-18T07:08:20.639Z,94599.55
2018-09-18T07:10:49.985Z,94603.23
2018-09-18T07:13:20.508Z,94594.17
2018-09-18T07:15:49.854Z,94591.07
2018-09-18T07:18:19.346Z,94590.22
2018-09-18T07:20:48.676Z,94589.88
2018-09-18T07:23:18.117Z,94588.70
2018-09-18T07:25:47.718Z,94580.77
2018-09-18T07:28:17.301Z,94580.59
2018-09-18T07:30:47.058Z,94578.92
2018-09-18T07:33:16.355Z,94573.98
2018-09-18T07:35:45.766Z,94565.00
2018-09-18T07:38:15.132Z,94564.50
2018-09-18T07:40:44.783Z,94565.34
2018-09-18T07:43:14.264Z,94568.66
2018-09-18T07:45:43.848Z,94570.10
2018-09-18T07:48:13.403Z,94563.42
2018-09-18T07:50:42.806Z,94557.64
2018-09-18T07:53:12.136Z,94560.20
2018-09-18T07:55:41.680Z,94562.05
2018-09-18T07:58:11.018Z,94553.80
2018-09-18T08:00:40.923Z,94561.41
2018-09-18T08:03:10.465Z,94563.37
2018-09-18T08:05:39.790Z,94557.83
2018-09-18T08:08:09.224Z,94556.44
2018-09-18T08:10:38.645Z,94562.03
2018-09-18T08:13:08.061Z,94558.03
2018-09-18T08:15:37.387Z,94558.54
2018-09-18T08:18:06.789Z,94559.63
2018-09-18T08:20:36.389Z,94556.73
2018-09-18T08:23:05.876Z,94552.42
2018-09-18T08:25:35.213Z,94555.18
2018-09-18T08:28:04.566Z,94553.47
2018-09-18T08:30:34.027Z,94545.77
2018-09-18T08:33:03.297Z,94541.02
2018-09-18T08:35:32.846Z,94544.59
2018-09-18T08:38:02.312Z,94535.97
2018-09-18T08:40:31.830Z,94535.74
2018-09-18T08:43:01.185Z,94535.40
2018-09-18T08:45:30.955Z,94531.53
2018-09-18T08:48:00.317Z,94524.94
2018-09-18T08:50:30.619Z,94521.37
2018-09-18T08:53:00.057Z,94519.86
2018-09-18T08:55:29.479Z,94512.06
2018-09-18T08:57:59.026Z,94509.66
2018-09-18T09:00:28.475Z,94513.16
2018-09-18T09:02:57.734Z,94506.68
2018-09-18T09:05:27.072Z,94506.61
2018-09-18T09:07:56.343Z,94503.95
2018-09-18T09:10:25.772Z,94506.33
2018-09-18T09:12:55.049Z,94505.61
2018-09-18T09:15:24.479Z,94503.91
2018-09-18T09:17:53.796Z,94499.88
2018-09-18T09:20:23.038Z,94499.14
2018-09-18T09:22:53.486Z,94497.36
2018-09-18T09:25:22.903Z,94492.00
2018-09-18T09:27:52.320Z,94486.12
2018-09-18T09:30:22.599Z,94481.59
2018-09-18T09:32:51.949Z,94485.94
2018-09-18T09:35:21.355Z,94484.09
2018-09-18T09:37:50.830Z,94481.08
2018-09-18T09:40:20.060Z,94484.12
2018-09-18T09:42:49.431Z,94480.07
2018-09-18T09:45:18.610Z,94483.53
2018-09-18T09:47:48.064Z,94476.55
2018-09-18T09:50:17.425Z,94479.21
2018-09-18T09:52:46.902Z,94476.34
2018-09-18T09:55:16.635Z,94472.56
2018-09-18T09:57:46.057Z,94477.69
2018-09-18T10:00:20.322Z,94465.41
2018-09-18T10:02:49.955Z,94459.73
2018-09-18T10:05:19.751Z,94461.98
2018-09-18T10:07:49.267Z,94451.48
2018-09-18T10:10:18.731Z,94458.08
2018-09-18T10:12:48.004Z,94454.91
2018-09-18T10:15:18.673Z,94445.15
2018-09-18T10:17:48.231Z,94455.48
2018-09-18T10:20:17.633Z,94447.70
2018-09-18T10:22:47.236Z,94449.61
2018-09-18T10:25:16.795Z,94445.52
2018-09-18T10:27:46.301Z,94442.39
2018-09-18T10:30:15.758Z,94436.36
2018-09-18T10:32:46.017Z,94431.65
2018-09-18T10:35:15.491Z,94427.78
2018-09-18T10:37:45.085Z,94428.84
2018-09-18T10:40:14.543Z,94418.56
2018-09-18T10:42:44.475Z,94412.05
2018-09-18T10:45:13.585Z,94413.05
2018-09-18T10:47:43.020Z,94411.43
2018-09-18T10:50:12.346Z,94417.47
2018-09-18T10:52:43.238Z,94409.11
2018-09-18T10:55:13.596Z,94408.65
2018-09-18T10:57:42.886Z,94405.92
2018-09-18T11:00:12.247Z,94397.27
2018-09-18T11:02:41.616Z,94388.44
2018-09-18T11:05:10.957Z,94391.59
2018-09-18T11:07:41.279Z,94386.64
2018-09-18T11:10:11.075Z,94387.20
2018-09-18T11:12:41.407Z,94379.89
2018-09-18T11:15:11.148Z,94382.88
2018-09-18T11:17:40.969Z,94382.73
2018-09-18T11:20:10.433Z,94376.89
2018-09-18T11:22:39.886Z,94372.95
2018-09-18T11:25:09.463Z,94367.27
2018-09-18T11:27:38.922Z,94357.73
2018-09-18T11:30:08.341Z,94353.92
2018-09-18T11:32:38.088Z,94362.21
2018-09-18T11:35:07.449Z,94359.52
2018-09-18T11:37:36.873Z,94359.27
2018-09-18T11:40:06.224Z,94352.85
2018-09-18T11:42:35.448Z,94351.92
2018-09-18T11:45:04.742Z,94350.16
2018-09-18T11:47:35.682Z,94354.52
2018-09-18T11:50:05.050Z,94351.64
2018-09-18T11:52:35.893Z,94354.20
2018-09-18T11:55:05.298Z,94354.79
2018-09-18T11:57:35.892Z,94352.28
2018-09-18T12:00:06.110Z,94349.56
2018-09-18T12:02:35.550Z,94346.02
2018-09-18T12:05:04.996Z,94343.11
2018-09-18T12:07:34.489Z,94349.52
2018-09-18T12:10:04.078Z,94344.19
2018-09-18T12:12:33.526Z,94341.48
2018-09-18T12:15:02.871Z,94341.08
2018-09-18T12:17:33.305Z,94338.54
2018-09-18T12:20:02.574Z,94333.46
2018-09-18T12:22:32.185Z,94334.66
2018-09-18T12:25:02.471Z,94332.38
2018-09-18T12:27:31.972Z,94324.38
2018-09-18T12:30:01.365Z,94321.89
2018-09-18T12:32:30.842Z,94316.48
2018-09-18T12:35:00.137Z,94318.30
2018-09-18T12:37:30.360Z,94314.34
2018-09-18T12:40:00.587Z,94315.41
2018-09-18T12:42:30.165Z,94318.84
2018-09-18T12:44:59.572Z,94314.85
2018-09-18T12:47:29.356Z,94310.73
2018-09-18T12:49:58.882Z,94312.51
2018-09-18T12:52:28.125Z,94315.70
2018-09-18T12:54:57.974Z,94317.05
2018-09-18T12:57:28.007Z,94308.48
2018-09-18T12:59:57.504Z,94305.48
2018-09-18T13:02:27.105Z,94300.64
2018-09-18T13:04:56.377Z,94299.08
2018-09-18T13:07:26.334Z,94305.00
2018-09-18T13:09:55.891Z,94296.25
2018-09-18T13:12:25.979Z,94296.74
2018-09-18T13:14:55.453Z,94292.39
2018-09-18T13:17:24.914Z,94291.59
2018-09-18T13:19:54.778Z,94288.72
2018-09-18T13:22:24.156Z,94281.97
2018-09-18T13:24:53.569Z,94280.86
2018-09-18T13:27:22.837Z,94277.06
2018-09-18T13:29:52.209Z,94285.91
2018-09-18T13:32:21.563Z,94278.72
2018-09-18T13:34:50.860Z,94277.47
2018-09-18T13:37:20.121Z,94273.92
2018-09-18T13:39:49.477Z,94264.14
2018-09-18T13:42:18.743Z,94271.63
2018-09-18T13:44:48.143Z,94270.62
2018-09-18T13:47:17.637Z,94267.76
2018-09-18T13:49:47.318Z,94268.66
2018-09-18T13:52:16.810Z,94265.64
2018-09-18T13:54:46.189Z,94264.39
2018-09-18T13:57:15.776Z,94258.62
2018-09-18T13:59:44.840Z,94262.51
2018-09-18T14:02:14.332Z,94262.39
2018-09-18T14:04:43.800Z,94271.19
2018-09-18T14:07:13.160Z,94265.22
2018-09-18T14:09:43.288Z,94259.13
2018-09-18T14:12:12.650Z,94260.05
2018-09-18T14:14:42.155Z,94264.48
2018-09-18T14:17:11.511Z,94261.30
2018-09-18T14:19:40.831Z,94252.64
2018-09-18T14:22:10.296Z,94255.67
2018-09-18T14:24:39.825Z,94248.34
2018-09-18T14:27:09.416Z,94239.41
2018-09-18T14:29:38.785Z,94236.13
2018-09-18T14:32:08.273Z,94237.28
2018-09-18T14:34:37.639Z,94233.91
2018-09-18T14:37:07.378Z,94235.41
2018-09-18T14:39:36.846Z,94240.71
2018-09-18T14:42:06.350Z,94230.77
2018-09-18T14:44:35.665Z,94234.17
2018-09-18T14:47:05.030Z,94233.23
2018-09-18T14:49:34.325Z,94240.78
2018-09-18T14:52:03.770Z,94237.91
2018-09-18T14:54:33.163Z,94231.63
2018-09-18T14:57:02.582Z,94234.94
2018-09-18T14:59:32.112Z,94226.30
2018-09-18T15:02:01.470Z,94229.21
2018-09-18T15:04:30.942Z,94227.62
2018-09-18T15:07:00.417Z,94229.56
2018-09-18T15:09:29.645Z,94234.15
2018-09-18T15:11:58.913Z,94238.63
2018-09-18T15:14:28.268Z,94246.96
2018-09-18T15:16:57.512Z,94242.85
2018-09-18T15:19:26.793Z,94236.02
2018-09-18T15:21:56.204Z,94237.69
2018-09-18T15:24:25.574Z,94229.23
2018-09-18T15:26:55.884Z,94232.27
2018-09-18T15:29:25.300Z,94232.86
2018-09-18T15:31:54.605Z,94235.16
2018-09-18T15:34:24.093Z,94236.95
2018-09-18T15:36:53.621Z,94233.28
2018-09-18T15:39:23.187Z,94238.23
2018-09-18T15:41:52.560Z,94242.05
2018-09-18T15:44:22.047Z,94238.52
2018-09-18T15:46:51.412Z,94251.02
2018-09-18T15:49:20.825Z,94248.12
2018-09-18T15:51:50.344Z,94242.08
2018-09-18T15:54:19.719Z,94248.23
2018-09-18T15:56:49.398Z,94244.41
2018-09-18T15:59:19.465Z,94246.52
2018-09-18T16:01:48.910Z,94248.17
2018-09-18T16:04:18.388Z,94245.89
2018-09-18T16:06:47.862Z,94242.41
2018-09-18T16:09:17.099Z,94241.59
2018-09-18T16:11:46.534Z,94238.73
2018-09-18T16:14:16.020Z,94246.41
2018-09-18T16:16:45.689Z,94240.41
2018-09-18T16:19:15.115Z,94244.28
2018-09-18T16:21:44.551Z,94250.12
2018-09-18T16:24:13.964Z,94250.51
2018-09-18T16:26:43.457Z,94253.36
2018-09-18T16:29:13.676Z,94257.59
2018-09-18T16:31:42.740Z,94260.61
2018-09-18T16:34:12.261Z,94264.46
2018-09-18T16:36:41.772Z,94268.20
2018-09-18T16:39:11.127Z,94270.51
2018-09-18T16:41:41.610Z,94272.08
2018-09-18T16:44:11.820Z,94271.42
2018-09-18T16:46:41.407Z,94274.26
2018-09-18T16:49:11.725Z,94280.59
2018-09-18T16:51:41.078Z,94275.53
2018-09-18T16:54:11.295Z,94281.98
2018-09-18T16:56:40.866Z,94272.88
2018-09-18T16:59:11.332Z,94278.17
2018-09-18T17:01:42.126Z,94278.06
2018-09-18T17:04:12.139Z,94281.23
2018-09-18T17:06:42.292Z,94280.64
2018-09-18T17:09:11.923Z,94278.19
2018-09-18T17:11:41.169Z,94282.70
2018-09-18T17:14:10.661Z,94291.17
2018-09-18T17:16:39.823Z,94295.77
2018-09-18T17:19:10.158Z,94297.97
2018-09-18T17:21:39.235Z,94303.20
2018-09-18T17:24:08.348Z,94307.94
2018-09-18T17:26:37.438Z,94310.16
2018-09-18T17:29:07.307Z,94312.77
2018-09-18T17:31:36.429Z,94311.08
2018-09-18T17:34:10.277Z,94320.02
2018-09-18T17:36:39.983Z,94323.88
2018-09-18T17:39:10.813Z,94329.77
2018-09-18T17:41:40.190Z,94326.61
2018-09-18T17:44:12.132Z,94333.81
2018-09-18T17:46:41.203Z,94337.02
2018-09-18T17:49:10.570Z,94337.58
2018-09-18T17:51:39.783Z,94340.58
2018-09-18T17:54:09.426Z,94351.08
2018-09-18T17:56:38.609Z,94354.23
2018-09-18T17:59:07.811Z,94351.81
2018-09-18T18:01:37.003Z,94354.42
2018-09-18T18:04:06.383Z,94365.30
2018-09-18T18:06:35.750Z,94363.13
2018-09-18T18:09:08.216Z,94363.17
2018-09-18T18:11:38.454Z,94366.23
2018-09-18T18:14:07.694Z,94370.06
2018-09-18T18:16:36.823Z,94370.94
2018-09-18T18:19:06.095Z,94365.95
2018-09-18T18:21:36.639Z,94367.02
2018-09-18T18:24:05.801Z,94370.94
2018-09-18T18:26:35.594Z,94369.14
2018-09-18T18:29:05.133Z,94366.33
2018-09-18T18:31:34.962Z,94369.52
2018-09-18T18:34:04.454Z,94380.02
2018-09-18T18:36:34.075Z,94381.16
2018-09-18T18:39:03.417Z,94379.85
2018-09-18T18:41:33.441Z,94383.30
2018-09-18T18:44:03.561Z,94389.42
2018-09-18T18:46:33.085Z,94398.91
2018-09-18T18:49:03.710Z,94401.69
2018-09-18T18:51:32.906Z,94401.75
2018-09-18T18:54:03.320Z,94411.80
2018-09-18T18:56:33.159Z,94414.70
2018-09-18T18:59:04.677Z,94412.88
2018-09-18T19:01:35.007Z,94420.56
2018-09-18T19:04:04.167Z,94422.14
2018-09-18T19:06:34.615Z,94422.40
2018-09-18T19:09:05.464Z,94426.88
2018-09-18T19:11:36.159Z,94422.41
2018-09-18T19:14:05.750Z,94433.00
2018-09-18T19:16:35.459Z,94434.55
2018-09-18T19:19:05.415Z,94438.00
2018-09-18T19:21:35.815Z,94444.85
2018-09-18T19:24:05.204Z,94446.98
2018-09-18T19:26:42.585Z,94444.35
2018-09-18T19:29:12.701Z,94441.45
2018-09-18T19:31:42.241Z,94441.95
2018-09-18T19:34:12.854Z,94444.06
2018-09-18T19:36:42.478Z,94446.98
2018-09-18T19:39:12.645Z,94452.25
2018-09-18T19:41:42.734Z,94456.73
2018-09-18T19:44:12.763Z,94461.45
2018-09-18T19:46:43.261Z,94453.02
2018-09-18T19:49:12.741Z,94455.94
2018-09-18T19:51:42.198Z,94454.63
2018-09-18T19:54:11.696Z,94463.59
2018-09-18T19:56:41.162Z,94463.05
2018-09-18T19:59:10.735Z,94462.53
2018-09-18T20:01:40.208Z,94465.67
2018-09-18T20:04:10.664Z,94466.74
2018-09-18T20:06:40.971Z,94464.38
2018-09-18T20:09:11.873Z,94472.00
2018-09-18T20:11:41.260Z,94476.48
2018-09-18T20:14:11.029Z,94474.37
2018-09-18T20:16:40.529Z,94478.61
2018-09-18T20:19:10.120Z,94485.45
2018-09-18T20:21:39.453Z,94480.70
2018-09-18T20:24:08.744Z,94486.25
2018-09-18T20:26:38.270Z,94501.00
2018-09-18T20:29:07.851Z,94500.98
2018-09-18T20:31:37.502Z,94501.48
2018-09-18T20:34:07.219Z,94515.66
2018-09-18T20:36:37.073Z,94514.06
2018-09-18T20:39:09.282Z,94519.58
2018-09-18T20:41:38.709Z,94524.06
2018-09-18T20:44:08.208Z,94518.48
2018-09-18T20:46:37.451Z,94515.08
2018-09-18T20:51:35.688Z,94523.26
2018-09-18T20:54:04.796Z,94521.19
2018-09-18T20:56:33.875Z,94529.08
2018-09-18T20:59:03.044Z,94526.70
2018-09-18T21:01:32.186Z,94533.77
2018-09-18T21:04:01.339Z,94535.64
2018-09-18T21:06:30.486Z,94528.02
2018-09-18T21:08:59.702Z,94526.66
2018-09-18T21:11:28.910Z,94524.48
2018-09-18T21:13:57.974Z,94526.58
2018-09-18T21:16:27.071Z,94530.30
2018-09-18T21:18:56.188Z,94529.78
2018-09-18T21:21:25.175Z,94543.49
2018-09-18T21:23:54.256Z,94549.77
2018-09-18T21:26:23.264Z,94549.48
2018-09-18T21:28:52.457Z,94553.72
2018-09-18T21:31:21.769Z,94549.03
2018-09-18T21:33:50.791Z,94555.14
2018-09-18T21:36:21.141Z,94550.91
2018-09-18T21:38:50.207Z,94555.91
2018-09-18T21:41:19.186Z,94552.73
2018-09-18T21:43:48.305Z,94549.56
2018-09-18T21:46:17.616Z,94542.72
2018-09-18T21:48:46.599Z,94549.80
2018-09-18T21:51:15.618Z,94554.82
2018-09-18T21:53:44.710Z,94558.80
2018-09-18T21:56:14.731Z,94554.83
2018-09-18T21:58:44.893Z,94558.19
2018-09-18T22:01:30.205Z,94553.23
2018-09-18T22:03:59.695Z,94549.35
2018-09-18T22:06:29.090Z,94546.77
2018-09-18T22:08:58.348Z,94552.02
2018-09-18T22:11:27.720Z,94554.59
2018-09-18T22:13:56.982Z,94564.13
2018-09-18T22:16:26.289Z,94567.19
2018-09-18T22:18:55.997Z,94568.88
2018-09-18T22:21:25.683Z,94570.11
2018-09-18T22:23:55.142Z,94575.25
2018-09-18T22:26:24.731Z,94570.00
2018-09-18T22:28:54.033Z,94565.80
2018-09-18T22:31:23.415Z,94569.47
2018-09-18T22:33:53.255Z,94572.20
2018-09-18T22:36:22.781Z,94577.03
2018-09-18T22:38:52.047Z,94576.30
2018-09-18T22:41:21.359Z,94574.98
2018-09-18T22:43:50.602Z,94568.66
2018-09-18T22:46:19.925Z,94571.05
2018-09-18T22:48:49.255Z,94568.38
2018-09-18T22:51:18.423Z,94566.02
2018-09-18T22:53:47.880Z,94572.09
2018-09-18T22:56:17.265Z,94566.02
2018-09-18T22:58:46.081Z,94558.81
2018-09-18T23:01:15.673Z,94565.92
2018-09-18T23:03:45.209Z,94564.07
2018-09-18T23:06:15.436Z,94564.41
2018-09-18T23:08:45.162Z,94567.52
2018-09-18T23:11:14.621Z,94565.96
2018-09-18T23:13:44.009Z,94568.56
2018-09-18T23:16:13.299Z,94566.71
2018-09-18T23:18:42.760Z,94563.28
2018-09-18T23:21:12.077Z,94564.81
2018-09-18T23:23:41.517Z,94556.91
2018-09-18T23:26:11.278Z,94566.45
2018-09-18T23:28:40.889Z,94572.39
2018-09-18T23:31:10.696Z,94566.56
2018-09-18T23:33:40.044Z,94564.19
2018-09-18T23:36:09.951Z,94566.23
2018-09-18T23:38:39.230Z,94562.49
2018-09-18T23:41:08.644Z,94569.06
2018-09-18T23:43:38.142Z,94567.59
2018-09-18T23:46:07.557Z,94574.61
2018-09-18T23:48:36.741Z,94578.45
2018-09-18T23:51:06.084Z,94577.31
2018-09-18T23:53:36.066Z,94570.97
2018-09-18T23:56:05.448Z,94574.66
2018-09-18T23:58:34.745Z,94574.64
